Time;durP1;ratioP1;P1;durP2;ratioP2;P2;SDS_P1;SDS_P2;PMS_P1;PMS_P2;Temp;Humidity;BMP_temperature;BMP_pressure;BME280_temperature;BME280_humidity;BME280_pressure;Samples;Min_cycle;Max_cycle;Signal;HPM_P1;HPM_P2
2022/11/09 00:01:01;;;;;;;14.98;8.02;;;10.60;99.90;;;;;;5046407;28;20028;-75
2022/11/09 00:03:27;;;;;;;13.13;8.00;;;10.60;99.90;;;;;;5049473;28;20028;-75
2022/11/09 00:05:57;;;;;;;14.32;7.45;;;10.60;99.90;;;;;;5047896;28;20017;-75
2022/11/09 00:08:22;;;;;;;19.05;8.35;;;10.60;99.90;;;;;;5048187;28;20060;-75
2022/11/09 00:10:48;;;;;;;16.00;7.60;;;10.60;99.90;;;;;;5045799;28;20032;-75
2022/11/09 00:13:13;;;;;;;11.88;7.65;;;10.60;99.90;;;;;;5039609;28;20486;-75
2022/11/09 00:15:42;;;;;;;13.43;7.35;;;10.50;99.90;;;;;;5047069;28;20126;-75
2022/11/09 00:18:08;;;;;;;12.75;7.22;;;10.60;99.90;;;;;;5045393;28;20075;-75
2022/11/09 00:20:33;;;;;;;16.77;6.72;;;10.50;99.90;;;;;;5047692;28;20056;-75
2022/11/09 00:22:59;;;;;;;10.07;6.68;;;10.50;99.90;;;;;;5050780;28;20592;-75
2022/11/09 00:25:25;;;;;;;11.40;5.85;;;10.50;99.90;;;;;;5044847;28;20023;-75
2022/11/09 00:27:59;;;;;;;10.52;5.93;;;10.50;99.90;;;;;;5044421;28;20417;-76
2022/11/09 00:30:26;;;;;;;11.70;6.63;;;10.50;99.90;;;;;;5045990;28;20048;-76
2022/11/09 00:32:58;;;;;;;11.10;5.82;;;10.50;99.90;;;;;;5043423;28;20041;-76
2022/11/09 00:35:23;;;;;;;8.95;5.95;;;10.50;99.90;;;;;;5045219;28;20029;-75
2022/11/09 00:37:53;;;;;;;9.35;5.75;;;10.50;99.90;;;;;;5045020;28;20049;-75
2022/11/09 00:40:18;;;;;;;12.52;5.95;;;10.50;99.90;;;;;;5047971;28;20036;-75
2022/11/09 00:42:44;;;;;;;7.97;5.57;;;10.50;99.90;;;;;;5043986;28;20029;-75
2022/11/09 00:45:10;;;;;;;10.27;5.03;;;10.40;99.90;;;;;;5046286;28;20052;-75
2022/11/09 00:47:36;;;;;;;14.77;6.10;;;10.40;99.90;;;;;;5045772;28;20481;-75
2022/11/09 00:50:01;;;;;;;8.95;5.60;;;10.40;99.90;;;;;;5045386;28;20033;-75
2022/11/09 00:52:33;;;;;;;10.48;5.97;;;10.50;99.90;;;;;;5046478;28;20039;-75
2022/11/09 00:54:58;;;;;;;10.13;5.85;;;10.40;99.90;;;;;;5041998;28;20036;-75
2022/11/09 00:57:27;;;;;;;9.48;5.57;;;10.40;99.90;;;;;;5046511;28;20076;-75
2022/11/09 00:59:53;;;;;;;11.80;6.03;;;10.40;99.90;;;;;;5045481;28;20117;-75
2022/11/09 01:02:21;;;;;;;10.18;5.80;;;10.40;99.90;;;;;;5043349;28;20108;-75
2022/11/09 01:04:46;;;;;;;11.10;6.30;;;10.40;99.90;;;;;;5041203;28;20025;-76
2022/11/09 01:07:15;;;;;;;11.35;5.47;;;10.40;99.90;;;;;;5041355;28;20040;-75
2022/11/09 01:09:41;;;;;;;9.98;5.88;;;10.40;99.90;;;;;;5072863;28;20107;-75
2022/11/09 01:12:06;;;;;;;9.05;5.70;;;10.40;99.90;;;;;;5048756;28;20048;-75
2022/11/09 01:14:32;;;;;;;10.43;5.85;;;10.40;99.90;;;;;;5041204;28;20039;-76
2022/11/09 01:17:01;;;;;;;9.68;6.10;;;10.40;99.90;;;;;;5045867;28;20037;-75
2022/11/09 01:19:27;;;;;;;10.57;6.10;;;10.40;99.90;;;;;;5045768;28;20029;-76
2022/11/09 01:21:53;;;;;;;8.80;5.72;;;10.40;99.90;;;;;;5046512;28;20017;-76
2022/11/09 01:24:18;;;;;;;9.50;6.03;;;10.40;99.90;;;;;;5042117;28;20075;-76
2022/11/09 01:26:47;;;;;;;10.73;6.05;;;10.40;99.90;;;;;;5046070;28;20067;-76
2022/11/09 01:29:15;;;;;;;8.80;5.35;;;10.40;99.90;;;;;;5040475;28;20033;-75
2022/11/09 01:31:47;;;;;;;13.20;6.53;;;10.40;99.90;;;;;;5043154;28;20048;-76
2022/11/09 01:34:13;;;;;;;10.15;6.00;;;10.30;99.90;;;;;;5042660;28;20055;-75
2022/11/09 01:36:39;;;;;;;11.32;6.15;;;10.30;99.90;;;;;;5044266;28;20057;-76
2022/11/09 01:39:04;;;;;;;14.85;6.50;;;10.30;99.90;;;;;;5043740;28;20033;-76
2022/11/09 01:41:39;;;;;;;10.57;5.88;;;10.30;99.90;;;;;;5046391;28;20083;-76
2022/11/09 01:44:13;;;;;;;10.32;6.47;;;10.30;99.90;;;;;;5045640;28;20075;-75
2022/11/09 01:46:41;;;;;;;8.35;5.43;;;10.30;99.90;;;;;;5047980;28;20086;-76
2022/11/09 01:49:45;;;;;;;8.90;5.63;;;10.30;99.90;;;;;;5043798;28;20113;-75
2022/11/09 01:52:16;;;;;;;9.52;5.95;;;10.30;99.90;;;;;;5025845;28;20470;-75
2022/11/09 01:54:49;;;;;;;10.57;6.07;;;10.30;99.90;;;;;;5064055;28;20040;-75
2022/11/09 01:57:23;;;;;;;10.88;5.82;;;10.30;99.90;;;;;;5041298;28;20037;-76
2022/11/09 01:59:54;;;;;;;9.32;5.47;;;10.30;99.90;;;;;;5046033;28;20459;-76
2022/11/09 02:02:20;;;;;;;9.60;5.40;;;10.30;99.90;;;;;;5046361;28;20028;-75
2022/11/09 02:05:00;;;;;;;12.02;5.95;;;10.30;99.90;;;;;;5044701;28;20390;-75
2022/11/09 02:07:33;;;;;;;10.40;5.63;;;10.30;99.90;;;;;;5044635;28;20316;-75
2022/11/09 02:10:12;;;;;;;9.97;6.03;;;10.30;99.90;;;;;;5043033;28;20036;-75
2022/11/09 02:12:44;;;;;;;20.83;6.10;;;10.30;99.90;;;;;;5044417;28;20293;-75
2022/11/09 02:15:10;;;;;;;10.18;5.82;;;10.30;99.90;;;;;;5043938;28;20025;-75
2022/11/09 02:17:37;;;;;;;11.50;6.47;;;10.30;99.90;;;;;;5044089;28;20078;-75
2022/11/09 02:20:14;;;;;;;11.27;6.22;;;10.30;99.90;;;;;;5046035;28;20044;-75
2022/11/09 02:22:40;;;;;;;14.63;6.72;;;10.30;99.90;;;;;;5050732;28;20025;-75
2022/11/09 02:25:07;;;;;;;10.60;6.78;;;10.30;99.90;;;;;;5049112;28;20477;-75
2022/11/09 02:27:40;;;;;;;14.80;7.20;;;10.30;99.90;;;;;;5047298;28;20036;-75
2022/11/09 02:30:06;;;;;;;11.35;7.03;;;10.30;99.90;;;;;;5046826;28;20044;-75
2022/11/09 02:32:32;;;;;;;11.93;7.13;;;10.20;99.90;;;;;;5046396;28;20159;-75
2022/11/09 02:34:58;;;;;;;11.73;7.15;;;10.20;99.90;;;;;;5050639;28;20029;-75
2022/11/09 02:37:47;;;;;;;10.98;6.85;;;10.20;99.90;;;;;;5047042;28;20025;-75
2022/11/09 02:40:19;;;;;;;10.88;7.15;;;10.10;99.90;;;;;;5048264;28;20043;-75
2022/11/09 02:42:47;;;;;;;13.75;8.40;;;10.10;99.90;;;;;;5049277;28;20025;-74
2022/11/09 02:45:13;;;;;;;12.38;7.88;;;10.10;99.90;;;;;;5045731;28;20029;-79
2022/11/09 02:47:39;;;;;;;15.63;8.52;;;10.10;99.90;;;;;;5054659;28;20108;-78
2022/11/09 02:50:05;;;;;;;12.55;7.28;;;10.10;99.90;;;;;;5051913;28;20084;-79
2022/11/09 02:52:30;;;;;;;12.50;7.43;;;10.10;99.90;;;;;;5051815;28;20044;-79
2022/11/09 02:54:56;;;;;;;13.18;7.65;;;10.10;99.90;;;;;;5055653;28;20037;-78
2022/11/09 02:57:22;;;;;;;15.68;7.47;;;10.10;99.90;;;;;;5050738;28;20037;-79
2022/11/09 02:59:47;;;;;;;10.27;6.15;;;10.10;99.90;;;;;;5049911;28;23846;-78
2022/11/09 03:02:13;;;;;;;15.25;7.25;;;10.10;99.90;;;;;;5053269;28;20384;-79
2022/11/09 03:04:39;;;;;;;12.13;6.88;;;10.10;99.90;;;;;;5051025;28;20108;-78
2022/11/09 03:07:06;;;;;;;11.32;6.28;;;10.20;99.90;;;;;;5048540;28;20033;-79
2022/11/09 03:09:32;;;;;;;10.25;6.22;;;10.10;99.90;;;;;;5051624;28;20021;-78
2022/11/09 03:11:58;;;;;;;13.77;6.75;;;10.10;99.90;;;;;;5049915;28;20185;-77
2022/11/09 03:14:23;;;;;;;10.32;6.43;;;10.10;99.90;;;;;;5049095;28;20037;-78
2022/11/09 03:17:04;;;;;;;11.70;7.60;;;10.20;99.90;;;;;;5051270;28;20025;-77
2022/11/09 03:19:30;;;;;;;10.60;6.20;;;10.20;99.90;;;;;;5050309;28;20048;-78
2022/11/09 03:21:55;;;;;;;12.40;7.38;;;10.10;99.90;;;;;;5050428;28;20100;-78
2022/11/09 03:24:21;;;;;;;14.43;6.43;;;10.20;99.90;;;;;;5052171;28;20029;-78
2022/11/09 03:26:46;;;;;;;11.25;6.65;;;10.20;99.90;;;;;;5048923;28;20029;-78
2022/11/09 03:29:12;;;;;;;12.70;6.90;;;10.20;99.90;;;;;;5051385;28;20129;-78
2022/11/09 03:31:45;;;;;;;12.02;6.60;;;10.20;99.90;;;;;;5051308;28;20402;-78
2022/11/09 03:34:17;;;;;;;12.57;6.35;;;10.30;99.90;;;;;;5045268;28;20044;-78
2022/11/09 03:36:42;;;;;;;11.75;6.28;;;10.30;99.90;;;;;;5047098;28;20057;-79
2022/11/09 03:39:10;;;;;;;13.05;7.93;;;10.30;99.90;;;;;;5048632;28;20520;-78
2022/11/09 03:41:39;;;;;;;10.35;5.95;;;10.30;99.90;;;;;;5049456;28;20013;-78
2022/11/09 03:44:08;;;;;;;10.93;6.55;;;10.30;99.90;;;;;;5054347;28;20033;-77
2022/11/09 03:46:46;;;;;;;11.73;6.50;;;10.40;99.90;;;;;;5055093;28;20052;-78
2022/11/09 03:49:15;;;;;;;8.30;6.20;;;10.40;99.90;;;;;;5054630;28;20048;-78
2022/11/09 03:51:46;;;;;;;12.77;7.30;;;10.40;99.90;;;;;;5051374;28;20112;-77
2022/11/09 03:54:15;;;;;;;10.27;6.53;;;10.40;99.90;;;;;;5048812;28;20029;-79
2022/11/09 03:56:44;;;;;;;12.00;7.10;;;10.40;99.90;;;;;;5049509;28;20374;-78
2022/11/09 03:59:09;;;;;;;9.07;6.00;;;10.40;99.90;;;;;;5054475;28;20033;-78
2022/11/09 04:01:35;;;;;;;9.65;6.32;;;10.40;99.90;;;;;;5049776;28;20023;-79
2022/11/09 04:04:01;;;;;;;9.70;5.85;;;10.30;99.90;;;;;;5050034;28;20028;-79
2022/11/09 04:06:29;;;;;;;9.20;5.78;;;10.30;99.90;;;;;;5050750;28;20045;-78
2022/11/09 04:08:55;;;;;;;9.30;6.30;;;10.30;99.90;;;;;;5049394;28;20051;-77
2022/11/09 04:11:23;;;;;;;8.43;5.32;;;10.30;99.90;;;;;;5047152;28;20025;-78
2022/11/09 04:13:49;;;;;;;10.68;5.72;;;10.40;99.90;;;;;;5047139;28;20179;-77
2022/11/09 04:16:21;;;;;;;8.18;5.43;;;10.40;99.90;;;;;;5052081;28;20033;-78
2022/11/09 04:18:53;;;;;;;9.23;5.22;;;10.40;99.90;;;;;;5050773;28;20025;-78
2022/11/09 04:21:18;;;;;;;8.93;5.53;;;10.40;99.90;;;;;;5050443;28;20024;-78
2022/11/09 04:23:50;;;;;;;11.07;6.13;;;10.40;99.90;;;;;;5049305;28;20527;-80
2022/11/09 04:26:19;;;;;;;8.95;5.60;;;10.40;99.90;;;;;;5049804;28;20091;-78
2022/11/09 04:28:44;;;;;;;9.60;5.53;;;10.40;99.90;;;;;;5047033;28;20104;-77
2022/11/09 04:31:10;;;;;;;10.60;5.80;;;10.40;99.90;;;;;;5041319;28;20108;-78
2022/11/09 04:33:39;;;;;;;8.52;4.82;;;10.50;99.90;;;;;;5048504;28;20079;-78
2022/11/09 04:36:08;;;;;;;8.77;5.50;;;10.40;99.90;;;;;;5046973;28;20033;-78
2022/11/09 04:38:36;;;;;;;9.32;4.97;;;10.50;99.90;;;;;;5050601;28;20051;-78
2022/11/09 04:41:03;;;;;;;7.07;4.10;;;10.50;99.90;;;;;;5046197;28;20407;-78
2022/11/09 04:43:32;;;;;;;7.93;4.65;;;10.50;99.90;;;;;;5049785;28;20060;-78
2022/11/09 04:46:04;;;;;;;8.18;4.75;;;10.50;99.90;;;;;;5048639;28;20036;-77
2022/11/09 04:48:30;;;;;;;8.38;5.28;;;10.50;99.90;;;;;;5046777;28;20466;-78
2022/11/09 04:51:05;;;;;;;6.53;4.80;;;10.50;99.90;;;;;;5048030;28;20048;-77
2022/11/09 04:53:34;;;;;;;7.47;4.18;;;10.50;99.90;;;;;;5045928;28;20032;-78
2022/11/09 04:56:04;;;;;;;8.50;4.72;;;10.50;99.90;;;;;;5048896;28;20033;-78
2022/11/09 04:58:36;;;;;;;7.55;4.57;;;10.50;99.90;;;;;;5053499;28;20025;-78
2022/11/09 05:01:28;;;;;;;6.20;4.43;;;10.50;99.90;;;;;;5050116;28;20033;-78
2022/11/09 05:03:57;;;;;;;7.88;4.55;;;10.50;99.90;;;;;;5050872;28;20127;-78
2022/11/09 05:06:31;;;;;;;7.13;3.70;;;10.50;99.90;;;;;;5049310;28;20036;-78
2022/11/09 05:09:03;;;;;;;6.35;3.75;;;10.50;99.90;;;;;;5052336;28;20080;-78
2022/11/09 05:11:29;;;;;;;10.02;4.07;;;10.50;99.90;;;;;;5050686;28;20021;-78
2022/11/09 05:14:00;;;;;;;10.70;3.97;;;10.50;99.90;;;;;;5051112;28;20083;-78
2022/11/09 05:16:28;;;;;;;9.02;3.60;;;10.50;99.90;;;;;;5051073;28;20025;-78
2022/11/09 05:18:54;;;;;;;5.90;3.78;;;10.50;99.90;;;;;;5050410;28;20021;-79
2022/11/09 05:21:19;;;;;;;7.30;3.47;;;10.50;99.90;;;;;;5049288;28;20028;-79
2022/11/09 05:24:01;;;;;;;5.80;3.67;;;10.50;99.90;;;;;;5049323;28;20029;-79
2022/11/09 05:26:54;;;;;;;10.38;4.50;;;10.50;99.90;;;;;;5055652;28;20028;-79
2022/11/09 05:29:26;;;;;;;8.38;3.75;;;10.50;99.90;;;;;;5045400;28;20048;-78
2022/11/09 05:31:52;;;;;;;7.40;3.00;;;10.50;99.90;;;;;;5046349;28;20627;-74
2022/11/09 05:34:17;;;;;;;10.48;3.30;;;10.50;99.90;;;;;;5050653;28;20071;-73
2022/11/09 05:36:46;;;;;;;6.40;2.63;;;10.50;99.90;;;;;;5044569;28;20112;-73
2022/11/09 05:39:14;;;;;;;6.35;2.35;;;10.60;99.90;;;;;;5048029;28;20175;-74
2022/11/09 05:41:40;;;;;;;3.85;2.25;;;10.60;99.90;;;;;;5049348;28;20025;-75
2022/11/09 05:44:06;;;;;;;3.90;2.08;;;10.60;99.90;;;;;;5047336;28;20031;-74
2022/11/09 05:46:34;;;;;;;6.80;1.98;;;10.60;99.90;;;;;;5039765;28;20385;-72
2022/11/09 05:49:00;;;;;;;9.43;2.20;;;10.60;99.90;;;;;;5043306;28;20567;-73
2022/11/09 05:51:28;;;;;;;4.00;2.00;;;10.70;99.90;;;;;;5046906;28;20029;-73
2022/11/09 05:53:54;;;;;;;3.20;2.20;;;10.80;99.90;;;;;;5044623;28;20037;-73
2022/11/09 05:56:26;;;;;;;3.38;2.10;;;10.80;99.90;;;;;;5051811;28;20035;-73
2022/11/09 05:58:56;;;;;;;3.80;2.20;;;10.80;99.90;;;;;;5048782;28;20025;-73
2022/11/09 06:01:21;;;;;;;4.68;2.10;;;10.90;99.90;;;;;;5049986;28;20485;-74
2022/11/09 06:03:47;;;;;;;2.47;1.73;;;10.90;99.90;;;;;;5055360;28;20031;-73
2022/11/09 06:06:15;;;;;;;3.95;1.65;;;10.90;99.90;;;;;;5052413;28;20371;-73
2022/11/09 06:08:46;;;;;;;6.57;2.03;;;11.00;99.90;;;;;;5055088;28;20044;-73
2022/11/09 06:11:13;;;;;;;6.05;1.83;;;11.00;99.90;;;;;;5054970;28;20108;-73
2022/11/09 06:13:38;;;;;;;3.97;2.05;;;11.00;99.90;;;;;;5054201;28;20079;-73
2022/11/09 06:16:09;;;;;;;3.38;1.75;;;11.00;99.90;;;;;;5055277;28;20024;-73
2022/11/09 06:18:37;;;;;;;2.53;1.50;;;11.10;99.90;;;;;;5055493;28;20033;-72
2022/11/09 06:21:04;;;;;;;7.68;2.10;;;11.10;99.90;;;;;;5052172;28;20029;-73
2022/11/09 06:23:33;;;;;;;11.10;2.00;;;11.10;99.90;;;;;;5053467;28;20025;-73
2022/11/09 06:26:08;;;;;;;5.60;2.53;;;11.10;99.90;;;;;;5047261;28;20520;-72
2022/11/09 06:28:34;;;;;;;4.97;2.42;;;11.20;99.90;;;;;;5052522;28;20025;-72
2022/11/09 06:31:09;;;;;;;3.55;1.80;;;11.20;99.90;;;;;;5051017;28;20072;-72
2022/11/09 06:33:43;;;;;;;3.00;1.48;;;11.20;99.90;;;;;;5044188;28;20037;-72
2022/11/09 06:36:10;;;;;;;5.45;2.15;;;11.20;99.90;;;;;;5069789;28;20025;-72
2022/11/09 06:38:35;;;;;;;4.32;2.13;;;11.30;99.90;;;;;;5054623;28;20021;-72
2022/11/09 06:41:09;;;;;;;5.80;2.28;;;11.30;99.90;;;;;;5049518;28;20036;-73
2022/11/09 06:43:35;;;;;;;4.45;1.77;;;11.30;99.90;;;;;;5051541;28;20486;-75
2022/11/09 06:46:04;;;;;;;5.13;2.05;;;11.30;99.90;;;;;;5049532;28;20225;-74
2022/11/09 06:48:30;;;;;;;3.30;1.77;;;11.30;99.90;;;;;;5046431;28;20040;-75
2022/11/09 06:51:00;;;;;;;3.55;1.80;;;11.40;99.90;;;;;;5046764;28;20482;-72
2022/11/09 06:53:30;;;;;;;3.65;1.90;;;11.40;99.90;;;;;;5046612;28;20531;-73
2022/11/09 06:56:05;;;;;;;3.67;2.03;;;11.40;99.90;;;;;;5047556;28;20032;-73
2022/11/09 06:58:31;;;;;;;4.00;2.08;;;11.40;99.90;;;;;;5048389;28;20041;-77
2022/11/09 07:01:09;;;;;;;5.25;2.33;;;11.40;99.90;;;;;;5056019;28;20036;-76
2022/11/09 07:03:38;;;;;;;2.55;1.55;;;11.40;99.90;;;;;;5052680;28;20017;-76
2022/11/09 07:06:24;;;;;;;3.67;1.80;;;11.40;99.90;;;;;;5054377;28;20385;-76
2022/11/09 07:08:54;;;;;;;4.07;1.67;;;11.40;99.90;;;;;;5052430;28;20576;-75
2022/11/09 07:11:19;;;;;;;3.58;1.70;;;11.40;99.90;;;;;;5054304;28;20523;-74
2022/11/09 07:13:48;;;;;;;4.20;2.42;;;11.50;99.90;;;;;;5050798;28;20033;-74
2022/11/09 07:16:16;;;;;;;7.07;3.58;;;11.50;99.90;;;;;;5054291;28;20025;-74
2022/11/09 07:18:48;;;;;;;7.45;4.45;;;11.50;99.90;;;;;;5047617;28;20118;-74
2022/11/09 07:21:20;;;;;;;7.25;5.35;;;11.50;99.90;;;;;;5045574;28;20032;-74
2022/11/09 07:23:49;;;;;;;8.10;5.60;;;11.50;99.90;;;;;;5041889;28;20031;-73
2022/11/09 07:26:15;;;;;;;9.30;5.50;;;11.40;99.90;;;;;;5050656;28;20033;-73
2022/11/09 07:28:44;;;;;;;7.13;5.18;;;11.40;99.90;;;;;;5051486;28;20478;-75
2022/11/09 07:31:13;;;;;;;11.18;5.68;;;11.40;99.90;;;;;;5053443;28;20052;-74
2022/11/09 07:33:48;;;;;;;8.65;5.38;;;11.40;99.90;;;;;;5049815;28;20051;-74
2022/11/09 07:36:19;;;;;;;11.88;5.43;;;11.40;99.90;;;;;;5047939;28;20033;-73
2022/11/09 07:38:45;;;;;;;11.73;6.07;;;11.40;99.90;;;;;;5046908;28;20116;-74
2022/11/09 07:41:11;;;;;;;9.27;6.07;;;11.30;99.90;;;;;;5047498;28;20456;-75
2022/11/09 07:43:39;;;;;;;9.95;6.43;;;11.30;99.90;;;;;;5049138;28;20025;-73
2022/11/09 07:46:11;;;;;;;9.32;5.30;;;11.30;99.90;;;;;;5057733;28;20028;-74
2022/11/09 07:48:43;;;;;;;11.52;5.55;;;11.30;99.90;;;;;;5051888;28;20469;-74
2022/11/09 07:51:11;;;;;;;9.40;5.32;;;11.20;99.90;;;;;;5052167;28;20021;-74
2022/11/09 07:53:43;;;;;;;8.38;4.88;;;11.20;99.90;;;;;;5047560;28;20079;-74
2022/11/09 07:56:11;;;;;;;11.57;4.85;;;11.10;99.90;;;;;;5053690;28;20053;-74
2022/11/09 07:58:49;;;;;;;7.95;5.10;;;11.00;99.90;;;;;;5042545;28;20425;-75
2022/11/09 08:01:14;;;;;;;8.25;4.88;;;11.00;99.90;;;;;;5051287;28;20389;-75
2022/11/09 08:03:40;;;;;;;10.82;5.60;;;11.00;99.90;;;;;;5053610;28;20086;-74
2022/11/09 08:06:14;;;;;;;11.68;5.57;;;11.00;99.90;;;;;;5053612;28;20025;-75
2022/11/09 08:08:43;;;;;;;7.10;5.32;;;11.00;99.90;;;;;;5052511;28;20032;-75
2022/11/09 08:11:09;;;;;;;9.38;5.80;;;11.00;99.90;;;;;;5053180;28;20033;-75
2022/11/09 08:13:34;;;;;;;8.40;4.88;;;11.00;99.90;;;;;;5047759;28;20074;-73
2022/11/09 08:16:01;;;;;;;9.00;5.05;;;11.00;99.90;;;;;;5053271;28;20037;-74
2022/11/09 08:18:33;;;;;;;8.13;3.95;;;11.00;99.90;;;;;;5052175;28;20473;-74
2022/11/09 08:21:03;;;;;;;10.23;6.13;;;11.00;99.90;;;;;;5052761;28;20382;-72
2022/11/09 08:23:29;;;;;;;8.93;4.53;;;11.00;99.90;;;;;;5051806;28;20025;-73
2022/11/09 08:25:55;;;;;;;8.02;4.50;;;11.00;99.90;;;;;;5047401;28;20031;-73
2022/11/09 08:28:34;;;;;;;10.77;5.07;;;11.00;99.90;;;;;;5053423;28;20386;-73
2022/11/09 08:31:03;;;;;;;8.27;4.60;;;11.00;99.90;;;;;;5047094;28;20044;-72
2022/11/09 08:33:40;;;;;;;9.10;5.15;;;11.00;99.90;;;;;;5046774;28;20123;-72
2022/11/09 08:36:12;;;;;;;7.85;4.97;;;11.00;99.90;;;;;;5051767;28;20086;-73
2022/11/09 08:38:38;;;;;;;8.40;4.53;;;11.00;99.90;;;;;;5052994;28;20473;-73
2022/11/09 08:41:04;;;;;;;11.07;4.55;;;11.00;99.90;;;;;;5052699;28;20047;-74
2022/11/09 08:43:33;;;;;;;8.18;4.45;;;11.00;99.90;;;;;;5052649;28;20076;-73
2022/11/09 08:45:59;;;;;;;5.82;4.30;;;11.00;99.90;;;;;;5041304;28;20477;-73
2022/11/09 08:48:27;;;;;;;7.38;4.88;;;11.00;99.90;;;;;;5046742;28;20097;-73
2022/11/09 08:50:58;;;;;;;9.18;5.15;;;11.00;99.90;;;;;;5052225;28;20048;-73
2022/11/09 08:53:25;;;;;;;8.68;4.45;;;11.00;99.90;;;;;;5051584;28;20064;-72
2022/11/09 08:55:51;;;;;;;8.30;4.07;;;11.10;99.90;;;;;;5050620;28;20460;-73
2022/11/09 08:58:18;;;;;;;6.20;3.90;;;11.10;99.90;;;;;;5051721;28;20057;-73
2022/11/09 09:00:43;;;;;;;7.75;3.80;;;11.10;99.90;;;;;;5051064;28;20366;-73
2022/11/09 09:03:09;;;;;;;10.40;4.28;;;11.10;99.90;;;;;;5050618;28;20100;-73
2022/11/09 09:05:35;;;;;;;6.80;4.00;;;11.10;99.90;;;;;;5050918;28;20021;-73
2022/11/09 09:08:09;;;;;;;12.60;5.13;;;11.10;99.90;;;;;;5052130;28;20025;-73
2022/11/09 09:10:42;;;;;;;7.70;4.40;;;11.10;99.90;;;;;;5050694;28;20033;-73
2022/11/09 09:13:10;;;;;;;7.82;4.28;;;11.20;99.90;;;;;;5052574;28;20048;-73
2022/11/09 09:15:36;;;;;;;8.40;4.07;;;11.20;99.90;;;;;;5052586;28;20031;-73
2022/11/09 09:18:02;;;;;;;8.43;4.93;;;11.30;99.90;;;;;;5047898;28;20033;-73
2022/11/09 09:20:41;;;;;;;7.15;3.83;;;11.30;99.90;;;;;;5050628;28;20085;-73
2022/11/09 09:23:19;;;;;;;5.70;3.08;;;11.40;99.90;;;;;;5037638;28;20075;-74
2022/11/09 09:25:44;;;;;;;5.03;3.03;;;11.40;99.90;;;;;;5052673;28;20039;-73
2022/11/09 09:28:16;;;;;;;4.32;2.95;;;11.50;99.90;;;;;;5054004;28;20098;-72
2022/11/09 09:30:42;;;;;;;4.95;2.47;;;11.50;99.90;;;;;;5056485;28;20029;-73
2022/11/09 09:33:13;;;;;;;7.50;3.22;;;11.60;99.90;;;;;;5063047;28;20040;-73
2022/11/09 09:35:39;;;;;;;3.83;2.35;;;11.60;99.90;;;;;;5055751;28;20029;-73
2022/11/09 09:38:05;;;;;;;6.10;3.47;;;11.70;99.90;;;;;;5054919;28;20032;-73
2022/11/09 09:40:39;;;;;;;7.00;2.90;;;11.70;99.90;;;;;;5056510;28;20029;-73
2022/11/09 09:43:28;;;;;;;5.25;3.22;;;11.80;99.90;;;;;;5055026;28;20025;-73
2022/11/09 09:45:54;;;;;;;10.73;3.85;;;11.80;99.90;;;;;;5056508;28;20564;-73
2022/11/09 09:48:43;;;;;;;6.25;3.08;;;11.90;99.90;;;;;;5055151;28;20025;-72
2022/11/09 09:51:32;;;;;;;6.57;3.05;;;12.00;99.90;;;;;;5044851;28;20108;-73
2022/11/09 09:54:22;;;;;;;7.72;3.03;;;12.00;99.90;;;;;;5053891;28;20112;-73
2022/11/09 09:56:51;;;;;;;5.20;2.88;;;12.10;99.90;;;;;;5038859;28;20112;-73
2022/11/09 09:59:41;;;;;;;6.43;2.90;;;12.20;99.90;;;;;;5049568;28;20029;-73
2022/11/09 10:02:27;;;;;;;5.07;2.50;;;12.30;99.90;;;;;;5040977;28;20044;-72
2022/11/09 10:04:58;;;;;;;4.10;3.10;;;12.40;99.90;;;;;;5055171;28;20028;-72
2022/11/09 10:07:49;;;;;;;6.15;2.35;;;12.40;99.90;;;;;;5053394;28;20083;-73
2022/11/09 10:10:32;;;;;;;4.38;2.47;;;12.50;99.90;;;;;;5052936;28;20436;-73
2022/11/09 10:13:16;;;;;;;7.77;2.93;;;12.60;99.90;;;;;;5045895;28;20021;-73
2022/11/09 10:16:08;;;;;;;6.80;2.20;;;12.70;99.90;;;;;;5050789;28;20297;-73
2022/11/09 10:19:10;;;;;;;6.45;2.10;;;12.80;99.90;;;;;;5043009;28;20032;-73
2022/11/09 10:21:39;;;;;;;5.45;2.22;;;12.90;99.90;;;;;;5053870;28;20493;-73
2022/11/09 10:24:29;;;;;;;5.20;2.42;;;12.90;99.90;;;;;;5054994;28;20025;-73
2022/11/09 10:27:00;;;;;;;5.13;2.60;;;13.00;99.90;;;;;;5043148;28;20056;-73
2022/11/09 10:29:58;;;;;;;37.28;2.67;;;13.10;99.90;;;;;;5051610;28;20080;-73
2022/11/09 10:32:31;;;;;;;8.82;2.00;;;13.20;99.90;;;;;;5013424;28;20491;-73
2022/11/09 10:35:14;;;;;;;3.05;1.75;;;13.20;99.90;;;;;;5051618;28;20462;-73
2022/11/09 10:37:45;;;;;;;4.32;1.42;;;13.30;99.90;;;;;;5036908;28;20034;-73
2022/11/09 10:40:17;;;;;;;2.80;1.42;;;13.30;99.90;;;;;;5053512;28;20421;-73
2022/11/09 10:42:57;;;;;;;11.98;1.40;;;13.40;99.90;;;;;;5053117;28;20025;-73
2022/11/09 10:45:31;;;;;;;4.05;1.70;;;13.50;99.90;;;;;;5053189;28;20021;-74
2022/11/09 10:47:57;;;;;;;4.60;1.80;;;13.50;99.90;;;;;;5042619;28;20497;-74
2022/11/09 10:50:45;;;;;;;3.13;1.50;;;13.60;99.90;;;;;;5040831;28;20025;-73
2022/11/09 10:53:22;;;;;;;3.28;1.92;;;13.60;99.90;;;;;;5054253;28;20096;-75
2022/11/09 10:55:52;;;;;;;4.00;1.60;;;13.70;99.90;;;;;;5054530;28;20104;-74
2022/11/09 10:58:30;;;;;;;2.70;1.45;;;13.70;99.90;;;;;;5052816;28;20032;-73
2022/11/09 11:01:00;;;;;;;2.63;1.42;;;13.70;99.90;;;;;;5053046;28;20127;-74
2022/11/09 11:03:27;;;;;;;3.38;2.13;;;13.80;99.90;;;;;;5052827;28;20059;-73
2022/11/09 11:06:02;;;;;;;3.67;1.85;;;13.80;99.90;;;;;;5037463;28;20028;-74
2022/11/09 11:08:31;;;;;;;4.40;1.85;;;13.90;99.90;;;;;;5046816;28;20029;-74
2022/11/09 11:11:35;;;;;;;4.32;1.92;;;13.90;99.90;;;;;;5066894;28;20113;-74
2022/11/09 11:14:22;;;;;;;3.95;2.03;;;13.90;99.90;;;;;;5032220;28;20440;-74
2022/11/09 11:16:51;;;;;;;3.03;1.83;;;14.00;99.90;;;;;;5034065;28;20026;-74
2022/11/09 11:19:45;;;;;;;8.82;2.00;;;14.00;99.90;;;;;;5038116;28;20315;-73
2022/11/09 11:22:11;;;;;;;2.65;1.88;;;14.00;99.90;;;;;;5053492;28;20429;-73
2022/11/09 11:24:55;;;;;;;5.38;1.63;;;14.10;99.90;;;;;;5053403;28;20079;-73
2022/11/09 11:27:36;;;;;;;3.00;1.42;;;14.20;99.90;;;;;;5047711;28;20035;-74
2022/11/09 11:30:40;;;;;;;5.70;2.58;;;14.30;99.90;;;;;;5052612;28;20091;-73
2022/11/09 11:33:13;;;;;;;5.20;2.07;;;14.30;99.90;;;;;;5053258;23;20044;-76
2022/11/09 11:36:17;;;;;;;4.40;1.88;;;14.30;99.90;;;;;;5044730;28;20282;-77
2022/11/09 11:39:09;;;;;;;4.78;1.50;;;14.40;99.90;;;;;;5038537;28;20143;-77
2022/11/09 11:41:38;;;;;;;4.47;2.17;;;14.40;99.90;;;;;;5045675;28;20040;-77
2022/11/09 11:44:48;;;;;;;3.15;1.90;;;14.40;99.90;;;;;;5047205;28;20090;-76
2022/11/09 11:47:35;;;;;;;4.28;2.65;;;14.40;99.90;;;;;;5027803;28;20049;-76
2022/11/09 11:50:09;;;;;;;5.13;2.85;;;14.50;99.90;;;;;;5043233;28;20017;-76
2022/11/09 11:53:02;;;;;;;4.85;2.72;;;14.40;99.90;;;;;;5046128;28;20032;-76
2022/11/09 11:55:46;;;;;;;5.68;2.83;;;14.50;99.90;;;;;;5042050;28;20057;-76
2022/11/09 11:58:42;;;;;;;4.55;2.78;;;14.50;99.90;;;;;;5040669;28;20027;-76
2022/11/09 12:01:21;;;;;;;3.50;2.28;;;14.50;99.90;;;;;;5042592;28;20390;-76
2022/11/09 12:04:19;;;;;;;6.40;3.22;;;14.50;99.90;;;;;;5047642;28;20032;-76
2022/11/09 12:06:52;;;;;;;7.20;3.53;;;14.40;99.90;;;;;;5045097;28;20017;-76
2022/11/09 12:09:55;;;;;;;4.43;2.10;;;14.40;99.90;;;;;;5043317;28;20041;-78
2022/11/09 12:12:44;;;;;;;4.30;1.80;;;14.50;99.90;;;;;;5045625;28;20052;-77
2022/11/09 12:15:52;;;;;;;6.82;2.38;;;14.40;99.90;;;;;;5034645;28;20103;-77
2022/11/09 12:18:44;;;;;;;3.38;2.10;;;14.50;99.90;;;;;;5035424;28;20438;-77
2022/11/09 12:21:32;;;;;;;4.55;2.20;;;14.50;99.90;;;;;;5044054;28;20481;-77
2022/11/09 12:24:10;;;;;;;3.50;1.77;;;14.50;99.90;;;;;;5044385;28;20021;-77
2022/11/09 12:26:59;;;;;;;3.03;1.75;;;14.50;99.90;;;;;;5045299;28;20021;-77
2022/11/09 12:29:52;;;;;;;3.47;1.80;;;14.50;99.90;;;;;;5043502;28;20064;-76
2022/11/09 12:32:41;;;;;;;1.98;1.10;;;14.60;99.90;;;;;;5037200;28;20045;-77
2022/11/09 12:35:15;;;;;;;2.05;0.95;;;14.60;99.90;;;;;;5040523;28;20043;-77
2022/11/09 12:37:55;;;;;;;1.55;0.73;;;14.60;99.90;;;;;;5039976;28;20028;-76
2022/11/09 12:40:23;;;;;;;1.98;1.10;;;14.60;99.90;;;;;;5040814;28;20033;-76
2022/11/09 12:43:24;;;;;;;5.85;1.02;;;14.70;99.90;;;;;;5047505;28;20028;-77
2022/11/09 12:45:52;;;;;;;2.75;1.35;;;14.70;99.90;;;;;;5028518;28;20071;-77
2022/11/09 12:48:30;;;;;;;3.55;1.40;;;14.70;99.90;;;;;;5043515;28;20067;-77
2022/11/09 12:50:58;;;;;;;3.10;1.10;;;14.70;99.90;;;;;;5041516;28;20404;-77
2022/11/09 12:53:36;;;;;;;2.72;1.00;;;14.70;99.90;;;;;;5029536;28;20079;-77
2022/11/09 12:56:07;;;;;;;1.95;0.98;;;14.70;99.90;;;;;;5040689;28;20033;-76
2022/11/09 12:58:35;;;;;;;1.08;0.70;;;14.70;99.90;;;;;;5040442;28;20117;-77
2022/11/09 13:01:06;;;;;;;4.25;1.33;;;14.70;99.90;;;;;;5050710;28;20094;-77
2022/11/09 13:03:37;;;;;;;4.97;1.38;;;14.70;99.90;;;;;;5040475;28;20028;-76
2022/11/09 13:06:20;;;;;;;1.83;1.17;;;14.70;99.90;;;;;;5046100;28;20056;-76
2022/11/09 13:09:06;;;;;;;5.93;1.38;;;14.70;99.90;;;;;;5034755;28;20385;-75